Résultats

Trail de Castellas - La Sublime : 14 km. Édition 2018.

14 Km
22/04/2018 à 09:30:00 - BELCODENE (13)
133 arrivant(e)s.





Place▲ Temps Dossard Nom Prenom Categ #Categ Sexe #Sexe Club Vit Moy Diplôme Partager
1 01:02:28 1142 AUFRERE AMBROISE SEM 1 M 1 AIX ATHLE PROVENCE. 13.45
2 01:12:30 1120 PAGEON PIERRE SEM 2 M 2 TEAM RAIDLIGHT PACA 11.59
3 01:12:45 1209 SAF KARIM M1M 1 M 3 BOXING CLUB HIPPO 11.55
4 01:15:32 1204 FERNANDEZ JEAN-FRANCOIS M1M 2 M 4 11.12
5 01:18:56 1173 FLORES DOMINIQUE M2M 1 M 5 10.64
6 01:19:55 1202 BOUVET FABIEN M1M 3 M 6 FADA PEYNIER. 10.51
7 01:20:30 1222 PEYRE BERNARD M2M 2 M 7 SCO STE MARGUERITE 10.43
8 01:20:44 1103 JULLIEN NICOLAS SEM 3 M 8 10.40
9 01:20:48 1116 GODDARD FRANCOIS M1M 4 M 9 COURIR A FUVEAU 10.40
10 01:20:55 1104 KABAR JEAN-FRANCOIS M1M 5 M 10 10.38
11 01:21:14 1187 CHAUVIN JOEL M1M 6 M 11 COURIR A FUVEAU 10.34
12 01:21:23 1123 AUSSEIL BENJAMIN M1M 7 M 12 10.32
13 01:21:30 1166 LARDIERE DAVID M1M 8 M 13 10.31
14 01:21:50 1200 BENEDETTO GUY M3M 1 M 14 ROUSSET TRIATHLON 10.26
15 01:21:58 1175 HEBTING PASCAL M2M 3 M 15 10.25
16 01:23:31 1286 FISHER YOANN M1M 9 M 16 10.06
17 01:24:02 1208 ABOUHAIR CHRISTOPHE M1M 10 M 17 LFA TRETS 10.00
18 01:24:12 1193 PEISSON ERIK M3M 2 M 18 AIL ROUSSET 9.98
19 01:24:13 1288 MAGNAN SYLVAIN M1M 11 M 19 9.97
20 01:24:21 1196 DESCHANEL GAUTIER M1M 12 M 20 9.96
21 01:24:41 1289 BENNES ALEXANDRE SEM 4 M 21 9.92
22 01:25:53 1167 DESAPIO LAURENT M1M 13 M 22 9.78
23 01:25:58 1163 STRATMAINS LAURENT M1M 14 M 23 9.77
24 01:26:54 1117 SILVIA NICOLAS SEM 5 M 24 9.67
25 01:26:59 1114 BATTISTONI CEDRIC SEM 6 M 25 9.66
26 01:27:17 1234 BILOT STEPHANE M1M 15 M 26 9.62
27 01:27:32 1199 IACOPONI PROSPER M3M 3 M 27 LE LIEVRE ET LA TORTUE 9.60
28 01:27:44 1127 YACHOU KARIM M1M 16 M 28 9.57
29 01:28:24 1178 ROUVIER CHRISTIAN M2M 4 M 29 CAVAL PERTUIS 9.50
30 01:29:00 1135 CHORNET BRUNO M2M 5 M 30 CLES GARDANNE 9.44
31 01:29:21 1140 MOREL SEBASTIEN SEM 7 M 31 TC LAMBESC 9.40
32 01:29:24 1137 ATZENI DANIEL M3M 4 M 32 CLES GARDANNE. 9.40
33 01:29:34 1232 GARGUILO RAPHAEL SEM 8 M 33 9.38
34 01:29:43 1211 PINEAU CECILE SEF 1 F 1 9.36
35 01:29:43 1212 EL-ATRI ANIS M1M 17 M 34 BOXING CLUB HIPPO 9.36
36 01:30:28 1188 LINGE YANIS SEM 9 M 35 COURIR FUVEAU SECTION TRIATHLON 9.29
37 01:31:38 1141 BONHOMME MANON SEF 2 F 2 9.17
38 01:31:54 1230 CURELY FRANCK M1M 18 M 36 LES ALLUMES DE LA SAINTE VICTOIRE 9.14
39 01:33:00 1106 MAULINO GERARD M1M 19 M 37 1973 9.03
40 01:33:18 1122 N:Anonyme 1122 P:Anonyme 1122 SEM 10 M 38 9.00
41 01:33:29 1157 MATRAS THIERRY M2M 6 M 39 CLES GARDANNE 8.99
42 01:33:32 1132 GRAULIER HERVE M1M 20 M 40 8.98
43 01:33:53 1164 BOUDIER-MAZIER THOMAS SEM 11 M 41 8.95
44 01:33:56 1216 FERNANDEZ LAURE M1F 1 F 3 8.94
45 01:34:19 1235 BAZIN PHILIPPE SEM 12 M 42 TRAIL ECO RAID 8.91
46 01:34:25 1143 HAUQUIER SYLVAIN SEM 13 M 43 8.90
47 01:34:35 1151 GARRIGUES REMI SEM 14 M 44 8.88
48 01:34:41 1224 BOURNE YVAN M1M 21 M 45 8.87
49 01:34:49 1124 BECCARIA JEAN-LUC M1M 22 M 46 8.86
50 01:34:50 1134 BEAULIEUX CELINE M1F 2 F 4 8.86
51 01:34:56 1152 PORTE GAEL SEM 15 M 47 8.85
52 01:35:03 1158 JEANJACQUOT PIERRE SEM 16 M 48 EL PAVIOT POPULO 8.84
53 01:35:19 1290 BLANC JEAN-LUC M2M 7 M 49 8.81
54 01:35:37 1203 BOUVET CAROLINE M1F 3 F 5 FADA PEYNIER 8.79
55 01:35:47 1231 BILLON ALICE M1F 4 F 6 COURIR 8.77
56 01:35:49 1130 GIMENEZ PHILIPPE M2M 8 M 50 FIT HOUSE GREASQUE 8.77
57 01:35:57 1219 ISSALYS-VOULANT CAROLE M2F 1 F 7 8.75
58 01:36:21 1223 BRUN MORGAN SEM 17 M 51 8.72
59 01:38:49 1179 DUPIAT GERALDINE SEF 3 F 8 CLES GARDANNE 8.50
60 01:38:51 1169 BERENGUER VANESSA SEF 4 F 9 8.50
61 01:39:12 1206 CHADEFAUX EMILIE SEF 5 F 10 8.47
62 01:39:32 1138 ATZENI CATHY M2F 2 F 11 CLES GARDANNE. 8.44
63 01:39:52 1170 GUIHENEUF FABRICE M1M 23 M 52 8.41
64 01:40:00 1177 ARNOLDI LUC M2M 9 M 53 8.40
65 01:40:18 1115 LECLERC ALEXANDRE SEM 18 M 54 8.37
66 01:40:29 1165 N:Anonyme 1165 P:Anonyme 1165 M2F 3 F 12 COURIR A FUVEAU 8.36
67 01:40:51 1180 REYNAUD STEPHANE SEM 19 M 55 8.33
68 01:40:52 1183 SALINERO STEPHANE M1M 24 M 56 8.33
69 01:40:56 1139 MONTELLANO JEROME M1M 25 M 57 8.32
70 01:41:56 1174 VERA ISABELLE M2F 4 F 13 8.24
71 01:41:59 1144 AUFRERE ISABELLE M2F 5 F 14 8.24
72 01:42:08 1201 DEFOORT BRUNO M1M 26 M 58 8.22
73 01:42:37 1171 TROUILLET PHILIPPE M3M 5 M 59 8.19
74 01:42:43 1128 GAGLIANI JEAN-PAUL M2M 10 M 60 8.18
75 01:43:31 1118 VIVIANI BERNARD M3M 6 M 61 SCO STE MARGUERITE 8.11
76 01:44:15 1154 DERDERIAN FABIENNE M2F 6 F 15 CCES 8.06
77 01:44:35 1226 COQUET MATHIEU SEM 20 M 62 BUBU RUNNING TEAM 8.03
78 01:44:50 1129 DEPOUSIER ESTELLE SEF 6 F 16 FIT HOUSE GREASQUE 8.01
79 01:47:36 1214 GALLO MATHIAS SEM 21 M 63 7.81
80 01:47:50 1284 LEFEBVRE FRANCOISE M3F 1 F 17 LFA TRETS 7.79
81 01:48:35 1161 PEGAND FRANCK M1M 27 M 64 7.74
82 01:49:07 1225 PEREIRA ELISABETH SEF 7 F 18 7.70
83 01:49:09 1285 FALDUTO CELINE M1F 5 F 19 7.70
84 01:49:21 1221 SAUVAGEOT JULIEN SEM 22 M 65 LE LIEVRE ET LA TORTUE 7.68
85 01:49:47 1176 CHAMBERT JOELLE M2F 7 F 20 LE LIEVRE ET LA TORTUE 7.65
86 01:50:42 1113 PAPPALARDO PATRICK M2M 11 M 66 7.59
87 01:50:59 1172 BOUVIER FLORIAN M1M 28 M 67 CLES GARDANNE 7.57
88 01:51:01 1191 BRICE BRUNO M2M 12 M 68 7.57
89 01:51:29 1189 HEURTIER VERONIQUE M2F 8 F 21 LE LIEVRE ET LA TORTUE 7.53
90 01:51:31 1217 DICK AURELIE SEF 8 F 22 LE LIEVRE ET LA TORTUE 7.53
91 01:51:53 1186 JAMET DANIEL M3M 7 M 69 LE LIEVREETATORTUE 7.51
92 01:53:16 1218 CLAPIER JEAN-CLAUDE M2M 13 M 70 CAVAL PERTUIS 7.42
93 01:54:24 1145 GUMB CEDRIC M1M 29 M 71 7.34
94 01:56:00 1125 COHEN JEAN-DANIEL M2M 14 M 72 7.24
95 02:00:46 1136 ANTONICELLI FREDERIC M1M 30 M 73 6.96
96 02:01:36 1107 VIVOIX STEPHANE M1M 31 M 74 6.91
97 02:02:05 1133 DURANDEU CLAIRE SEF 9 F 23 FIT HOUSE 6.88
98 02:03:21 1229 BOUROT KARINE M1F 6 F 24 COURIR A MEYREUIL 6.81
99 02:03:24 1184 PILLET BRIGITTE M3F 2 F 25 . 6.81
100 02:03:36 1160 LEDOUX SANDRINE M1F 7 F 26 6.80